Observations

Aujourd'hui

  • Température

    Max: 18.6° à 14:25:31

    Moy: 7.7°

    Min: -0.5° à 07:24:11

 

  • Humidité

    Max: 85% à 08:20:42

    Min: 45% à 16:41:39

 

  • Précipitation accumulée

    Aujourd'hui: 0 mm

    Ce mois-ci: 15 mm

    Cette année: 291 mm



HeureTemperaturePoint de roséeHumiditéDir. VentVitesseRafalesPressionPrecip.Precip. Accum.
16:39 16.8°C 4.7°C 45% 2.9 km/h 6.9 km/h 1014 hPa 0 mm/hr 0 mm
16:34 16.7°C 4.7°C 45% 5.5 km/h 6.1 km/h 1014 hPa 0 mm/hr 0 mm
16:29 16.6°C 4.6°C 45% 4.7 km/h 6.1 km/h 1014 hPa 0 mm/hr 0 mm
16:24 16.5°C 4.5°C 45% 3.2 km/h 4.3 km/h 1014 hPa 0 mm/hr 0 mm
16:19 16.5°C 4.5°C 45% 1.8 km/h 4.3 km/h 1014 hPa 0 mm/hr 0 mm
16:14 16.6°C 4.6°C 45% 0 km/h 6.1 km/h 1014 hPa 0 mm/hr 0 mm
16:09 16.6°C 4.6°C 45% 0 km/h 6.4 km/h 1014 hPa 0 mm/hr 0 mm
16:04 16.8°C 5.1°C 46% 6.1 km/h 6.4 km/h 1014 hPa 0 mm/hr 0 mm
15:59 17.1°C 5°C 45% 4 km/h 5.8 km/h 1014 hPa 0 mm/hr 0 mm
15:54 17.1°C 5.4°C 46% 2.1 km/h 5 km/h 1014 hPa 0 mm/hr 0 mm
15:49 16.8°C 5.1°C 46% 1.8 km/h 6.1 km/h 1014 hPa 0 mm/hr 0 mm
15:44 16.8°C 5.1°C 46% 0 km/h 8.2 km/h 1014 hPa 0 mm/hr 0 mm
15:39 16.9°C 5.2°C 46% 6.1 km/h 8.2 km/h 1014 hPa 0 mm/hr 0 mm
15:34 16.7°C 5°C 46% 7.9 km/h 7.9 km/h 1014 hPa 0 mm/hr 0 mm
15:29 17.1°C 5.4°C 46% 5.5 km/h 6.1 km/h 1014 hPa 0 mm/hr 0 mm
15:24 17°C 5.3°C 46% 4 km/h 6.1 km/h 1014 hPa 0 mm/hr 0 mm
15:19 17°C 5.3°C 46% 0 km/h 5.5 km/h 1014 hPa 0 mm/hr 0 mm
15:14 17°C 4.9°C 45% 2.6 km/h 6.1 km/h 1014 hPa 0 mm/hr 0 mm
15:09 17.1°C 5.4°C 46% 3.2 km/h 7.9 km/h 1014 hPa 0 mm/hr 0 mm
15:04 17.3°C 5.5°C 46% 6.1 km/h 8.7 km/h 1015 hPa 0 mm/hr 0 mm
14:59 17.2°C 5.5°C 46% 6.4 km/h 10.5 km/h 1015 hPa 0 mm/hr 0 mm
14:54 16.9°C 5.2°C 46% 3.2 km/h 10.5 km/h 1015 hPa 0 mm/hr 0 mm
14:49 17.3°C 5.5°C 46% 3.2 km/h 9 km/h 1015 hPa 0 mm/hr 0 mm
14:44 17.5°C 5.7°C 46% 5 km/h 9 km/h 1015 hPa 0 mm/hr 0 mm
14:39 18.1°C 6.3°C 46% 0 km/h 6.1 km/h 1015 hPa 0 mm/hr 0 mm
14:34 18°C 6.2°C 46% 6.1 km/h 6.1 km/h 1015 hPa 0 mm/hr 0 mm
14:29 18.2°C 6.4°C 46% 2.1 km/h 5.8 km/h 1015 hPa 0 mm/hr 0 mm
14:24 18.6°C 6.7°C 46% 4.3 km/h 9 km/h 1015 hPa 0 mm/hr 0 mm
14:19 18.4°C 6.9°C 47% 2.1 km/h 9 km/h 1015 hPa 0 mm/hr 0 mm
14:14 18.1°C 6.6°C 47% 5.5 km/h 8.2 km/h 1015 hPa 0 mm/hr 0 mm
14:09 17.9°C 6.7°C 48% 3.2 km/h 8.2 km/h 1015 hPa 0 mm/hr 0 mm
14:04 18.3°C 7.1°C 48% 5.5 km/h 6.4 km/h 1015 hPa 0 mm/hr 0 mm
13:59 18.2°C 6.7°C 47% 6.4 km/h 6.4 km/h 1015 hPa 0 mm/hr 0 mm
13:54 17.8°C 6.6°C 48% 6.1 km/h 8.7 km/h 1015 hPa 0 mm/hr 0 mm
13:49 17.6°C 6.5°C 48% 6.1 km/h 8.7 km/h 1015 hPa 0 mm/hr 0 mm
13:44 18.1°C 6.9°C 48% 5.5 km/h 7.2 km/h 1015 hPa 0 mm/hr 0 mm
13:39 17.7°C 6.9°C 49% 4.7 km/h 6.9 km/h 1015 hPa 0 mm/hr 0 mm
13:34 17.9°C 7.3°C 50% 4.3 km/h 6.1 km/h 1015 hPa 0 mm/hr 0 mm
13:29 17.4°C 6.9°C 50% 5.8 km/h 9.3 km/h 1015 hPa 0 mm/hr 0 mm
13:24 17.3°C 6.8°C 50% 3.2 km/h 9.3 km/h 1015 hPa 0 mm/hr 0 mm
13:19 16.9°C 6.7°C 51% 6.4 km/h 8.7 km/h 1015 hPa 0 mm/hr 0 mm
13:14 16.4°C 6.2°C 51% 6.4 km/h 8.7 km/h 1015 hPa 0 mm/hr 0 mm
13:09 16.3°C 6.4°C 52% 4.3 km/h 9 km/h 1015 hPa 0 mm/hr 0 mm
13:04 16.2°C 6.7°C 53% 6.4 km/h 9 km/h 1016 hPa 0 mm/hr 0 mm
12:59 16.1°C 6.6°C 53% 9 km/h 9 km/h 1016 hPa 0 mm/hr 0 mm
12:54 16°C 6.5°C 53% 2.6 km/h 7.2 km/h 1016 hPa 0 mm/hr 0 mm
12:49 15.9°C 6.6°C 54% 1.8 km/h 7.9 km/h 1016 hPa 0 mm/hr 0 mm
12:44 15.9°C 6.9°C 55% 6.1 km/h 7.9 km/h 1016 hPa 0 mm/hr 0 mm
12:39 15.8°C 6.5°C 54% 0 km/h 6.9 km/h 1016 hPa 0 mm/hr 0 mm
12:34 15.6°C 6.6°C 55% 4.7 km/h 6.1 km/h 1016 hPa 0 mm/hr 0 mm
12:29 15.5°C 6.8°C 56% 5.8 km/h 6.9 km/h 1016 hPa 0 mm/hr 0 mm
12:24 15.3°C 6.9°C 57% 5.5 km/h 6.9 km/h 1016 hPa 0 mm/hr 0 mm
12:19 15°C 6.9°C 58% 4 km/h 6.1 km/h 1016 hPa 0 mm/hr 0 mm
12:14 15°C 6.9°C 58% 5.8 km/h 6.1 km/h 1016 hPa 0 mm/hr 0 mm
12:09 14.7°C 6.9°C 59% 6.1 km/h 6.1 km/h 1016 hPa 0 mm/hr 0 mm
12:04 14.5°C 6.6°C 59% 5 km/h 9 km/h 1016 hPa 0 mm/hr 0 mm
11:59 14.4°C 6.5°C 59% 5.5 km/h 9 km/h 1016 hPa 0 mm/hr 0 mm
11:54 14.3°C 6.7°C 60% 3.2 km/h 6.9 km/h 1016 hPa 0 mm/hr 0 mm
11:49 14.2°C 6.6°C 60% 6.9 km/h 6.9 km/h 1016 hPa 0 mm/hr 0 mm
11:44 14.2°C 6.9°C 61% 0 km/h 6.4 km/h 1016 hPa 0 mm/hr 0 mm
11:39 14.1°C 6.8°C 61% 5.5 km/h 6.9 km/h 1016 hPa 0 mm/hr 0 mm
11:34 13.8°C 6.7°C 62% 2.9 km/h 6.9 km/h 1016 hPa 0 mm/hr 0 mm
11:29 13.7°C 6.6°C 62% 5.5 km/h 5.8 km/h 1016 hPa 0 mm/hr 0 mm
11:24 13.5°C 6.4°C 62% 5.8 km/h 5.8 km/h 1016 hPa 0 mm/hr 0 mm
11:19 13.2°C 6.4°C 63% 3.2 km/h 6.9 km/h 1016 hPa 0 mm/hr 0 mm
11:14 13°C 6.2°C 63% 4.3 km/h 6.9 km/h 1016 hPa 0 mm/hr 0 mm
11:09 13°C 6.4°C 64% 6.9 km/h 6.9 km/h 1016 hPa 0 mm/hr 0 mm
11:04 12.8°C 6.2°C 64% 4.7 km/h 6.4 km/h 1016 hPa 0 mm/hr 0 mm
10:59 12.9°C 6.3°C 64% 5.8 km/h 6.4 km/h 1016 hPa 0 mm/hr 0 mm
10:54 12.9°C 6.3°C 64% 4 km/h 6.1 km/h 1016 hPa 0 mm/hr 0 mm
10:49 12.8°C 6.4°C 65% 2.6 km/h 6.1 km/h 1016 hPa 0 mm/hr 0 mm
10:44 12.6°C 6.3°C 65% 4.3 km/h 6.1 km/h 1016 hPa 0 mm/hr 0 mm
10:39 12.4°C 6.5°C 67% 6.1 km/h 6.1 km/h 1016 hPa 0 mm/hr 0 mm
10:34 12.5°C 6.4°C 66% 4.3 km/h 4.7 km/h 1016 hPa 0 mm/hr 0 mm
10:29 12.3°C 6.4°C 67% 4.7 km/h 5 km/h 1016 hPa 0 mm/hr 0 mm
10:24 12.2°C 6.3°C 67% 4 km/h 5 km/h 1016 hPa 0 mm/hr 0 mm
10:19 12°C 6.3°C 68% 4 km/h 4.7 km/h 1016 hPa 0 mm/hr 0 mm
10:14 12°C 6.3°C 68% 4 km/h 4.3 km/h 1016 hPa 0 mm/hr 0 mm
10:09 11.9°C 6.4°C 69% 4 km/h 4 km/h 1016 hPa 0 mm/hr 0 mm
10:04 11.6°C 6.4°C 70% 2.9 km/h 4.7 km/h 1016 hPa 0 mm/hr 0 mm
09:59 11.3°C 6.3°C 71% 0 km/h 5 km/h 1016 hPa 0 mm/hr 0 mm
09:54 11.4°C 6.4°C 71% 2.6 km/h 5 km/h 1016 hPa 0 mm/hr 0 mm
09:49 10.9°C 6.1°C 72% 5 km/h 5 km/h 1016 hPa 0 mm/hr 0 mm
09:44 10.7°C 6.1°C 73% 3.2 km/h 4 km/h 1016 hPa 0 mm/hr 0 mm
09:39 10.3°C 5.9°C 74% 3.2 km/h 4.3 km/h 1016 hPa 0 mm/hr 0 mm
09:34 10°C 5.6°C 74% 3.2 km/h 4.3 km/h 1016 hPa 0 mm/hr 0 mm
09:29 9.7°C 5.5°C 75% 4.3 km/h 4.3 km/h 1016 hPa 0 mm/hr 0 mm
09:24 9.4°C 5.2°C 75% 0 km/h 4.3 km/h 1016 hPa 0 mm/hr 0 mm
09:19 8.8°C 4.8°C 76% 0 km/h 4.3 km/h 1016 hPa 0 mm/hr 0 mm
09:14 8.3°C 4.5°C 77% 4.3 km/h 4.3 km/h 1016 hPa 0 mm/hr 0 mm
09:09 8.1°C 4.5°C 78% 3.2 km/h 4.7 km/h 1016 hPa 0 mm/hr 0 mm
09:04 7.5°C 4.1°C 79% 2.9 km/h 4.7 km/h 1016 hPa 0 mm/hr 0 mm
08:59 7.3°C 4.1°C 80% 2.9 km/h 4.7 km/h 1016 hPa 0 mm/hr 0 mm
08:54 6.8°C 3.8°C 81% 2.9 km/h 4.3 km/h 1016 hPa 0 mm/hr 0 mm
08:49 6.3°C 3.4°C 82% 2.9 km/h 2.9 km/h 1016 hPa 0 mm/hr 0 mm
07:34 -0.3°C -2.8°C 83% 0 km/h 0 km/h 1016 hPa 0 mm/hr 0 mm
07:29 -0.4°C -2.9°C 83% 0 km/h 0 km/h 1016 hPa 0 mm/hr 0 mm
07:24 -0.5°C -3°C 83% 0 km/h 0 km/h 1016 hPa 0 mm/hr 0 mm
07:19 -0.5°C -3°C 83% 0 km/h 0 km/h 1015 hPa 0 mm/hr 0 mm
07:14 -0.4°C -2.9°C 83% 0 km/h 0 km/h 1015 hPa 0 mm/hr 0 mm
07:09 -0.4°C -2.9°C 83% 0 km/h 0 km/h 1015 hPa 0 mm/hr 0 mm
07:04 -0.3°C -2.8°C 83% 0 km/h 0 km/h 1016 hPa 0 mm/hr 0 mm
06:59 -0.3°C -2.8°C 83% 0 km/h 0 km/h 1016 hPa 0 mm/hr 0 mm
06:54 -0.2°C -2.9°C 82% 0 km/h 0 km/h 1016 hPa 0 mm/hr 0 mm
06:49 -0.1°C -2.8°C 82% 0 km/h 0 km/h 1016 hPa 0 mm/hr 0 mm
06:44 0°C -2.7°C 82% 0 km/h 0 km/h 1016 hPa 0 mm/hr 0 mm
06:39 0°C -2.7°C 82% 0 km/h 0 km/h 1016 hPa 0 mm/hr 0 mm
06:34 0.1°C -2.4°C 83% 0 km/h 0 km/h 1016 hPa 0 mm/hr 0 mm
06:29 0.1°C -2.4°C 83% 0 km/h 0 km/h 1016 hPa 0 mm/hr 0 mm
06:24 0.2°C -2.3°C 83% 0 km/h 0 km/h 1016 hPa 0 mm/hr 0 mm
06:19 0.3°C -2.3°C 83% 0 km/h 0 km/h 1016 hPa 0 mm/hr 0 mm
06:14 0.4°C -2.2°C 83% 0 km/h 0 km/h 1016 hPa 0 mm/hr 0 mm
06:09 0.4°C -2.2°C 83% 0 km/h 0 km/h 1016 hPa 0 mm/hr 0 mm
06:04 0.5°C -2.1°C 83% 0 km/h 0 km/h 1016 hPa 0 mm/hr 0 mm
05:59 0.6°C -2°C 83% 0 km/h 0 km/h 1016 hPa 0 mm/hr 0 mm
05:54 0.6°C -2°C 83% 0 km/h 0 km/h 1016 hPa 0 mm/hr 0 mm
05:49 0.6°C -2°C 83% 0 km/h 0 km/h 1016 hPa 0 mm/hr 0 mm
05:44 0.6°C -2°C 83% 0 km/h 0 km/h 1016 hPa 0 mm/hr 0 mm
05:39 0.6°C -2.1°C 82% 0 km/h 0 km/h 1016 hPa 0 mm/hr 0 mm
05:34 0.5°C -2.2°C 82% 0 km/h 0 km/h 1016 hPa 0 mm/hr 0 mm
05:29 0.5°C -2.2°C 82% 0 km/h 0 km/h 1016 hPa 0 mm/hr 0 mm
05:24 0.4°C -2.3°C 82% 0 km/h 0 km/h 1016 hPa 0 mm/hr 0 mm
05:19 0.4°C -2.3°C 82% 0 km/h 0 km/h 1016 hPa 0 mm/hr 0 mm
05:14 0.4°C -2.5°C 81% 0 km/h 0 km/h 1016 hPa 0 mm/hr 0 mm
05:09 0.4°C -2.5°C 81% 0 km/h 0 km/h 1016 hPa 0 mm/hr 0 mm
05:04 0.5°C -2.4°C 81% 0 km/h 0 km/h 1016 hPa 0 mm/hr 0 mm
04:59 0.5°C -2.4°C 81% 0 km/h 0 km/h 1016 hPa 0 mm/hr 0 mm
04:54 0.6°C -2.3°C 81% 0 km/h 0 km/h 1016 hPa 0 mm/hr 0 mm
04:49 0.6°C -2.3°C 81% 0 km/h 0 km/h 1016 hPa 0 mm/hr 0 mm
04:44 0.7°C -2.2°C 81% 0 km/h 0 km/h 1016 hPa 0 mm/hr 0 mm
04:39 0.7°C -2.2°C 81% 0 km/h 0 km/h 1016 hPa 0 mm/hr 0 mm
04:34 0.8°C -2.1°C 81% 0 km/h 0 km/h 1016 hPa 0 mm/hr 0 mm
04:29 0.9°C -2°C 81% 0 km/h 0 km/h 1016 hPa 0 mm/hr 0 mm
04:24 0.9°C -2°C 81% 0 km/h 0 km/h 1016 hPa 0 mm/hr 0 mm
04:19 1°C -2.1°C 80% 0 km/h 0 km/h 1016 hPa 0 mm/hr 0 mm
04:14 1°C -2.1°C 80% 0 km/h 0 km/h 1016 hPa 0 mm/hr 0 mm
04:09 1°C -2.1°C 80% 0 km/h 0 km/h 1016 hPa 0 mm/hr 0 mm
04:04 1.1°C -2°C 80% 0 km/h 0 km/h 1016 hPa 0 mm/hr 0 mm
03:59 1.1°C -2°C 80% 0 km/h 0 km/h 1016 hPa 0 mm/hr 0 mm
03:54 1.2°C -1.8°C 80% 0 km/h 0 km/h 1016 hPa 0 mm/hr 0 mm
03:49 1.2°C -1.8°C 80% 0 km/h 0 km/h 1016 hPa 0 mm/hr 0 mm
03:44 1.3°C -1.8°C 80% 0 km/h 0 km/h 1016 hPa 0 mm/hr 0 mm
03:39 1.3°C -1.8°C 80% 0 km/h 0 km/h 1016 hPa 0 mm/hr 0 mm
03:34 1.4°C -1.7°C 80% 0 km/h 0 km/h 1016 hPa 0 mm/hr 0 mm
03:29 1.5°C -1.7°C 79% 0 km/h 0 km/h 1017 hPa 0 mm/hr 0 mm
03:24 1.5°C -1.7°C 79% 0 km/h 0 km/h 1017 hPa 0 mm/hr 0 mm
03:19 1.5°C -1.7°C 79% 0 km/h 0 km/h 1017 hPa 0 mm/hr 0 mm
03:14 1.5°C -1.7°C 79% 0 km/h 0 km/h 1017 hPa 0 mm/hr 0 mm
03:09 1.6°C -1.6°C 79% 0 km/h 0 km/h 1017 hPa 0 mm/hr 0 mm
03:04 1.7°C -1.5°C 79% 0 km/h 0 km/h 1016 hPa 0 mm/hr 0 mm
02:59 1.7°C -1.5°C 79% 0 km/h 0 km/h 1016 hPa 0 mm/hr 0 mm
02:54 1.8°C -1.5°C 79% 0 km/h 0 km/h 1016 hPa 0 mm/hr 0 mm
02:49 1.9°C -1.4°C 79% 0 km/h 0 km/h 1016 hPa 0 mm/hr 0 mm
02:44 1.9°C -1.4°C 79% 0 km/h 0 km/h 1016 hPa 0 mm/hr 0 mm
02:39 2°C -1.4°C 78% 0 km/h 0 km/h 1016 hPa 0 mm/hr 0 mm
02:34 2.1°C -1.3°C 78% 0 km/h 0 km/h 1017 hPa 0 mm/hr 0 mm
02:29 2.2°C -1.2°C 78% 0 km/h 0 km/h 1017 hPa 0 mm/hr 0 mm
02:24 2.3°C -1.1°C 78% 0 km/h 0 km/h 1017 hPa 0 mm/hr 0 mm
02:19 2.3°C -1°C 79% 0 km/h 0 km/h 1017 hPa 0 mm/hr 0 mm
02:14 2.5°C -0.9°C 78% 0 km/h 0 km/h 1017 hPa 0 mm/hr 0 mm
02:09 2.6°C -0.8°C 78% 0 km/h 0 km/h 1017 hPa 0 mm/hr 0 mm
02:04 2.7°C -0.7°C 78% 0 km/h 1.8 km/h 1017 hPa 0 mm/hr 0 mm
01:59 2.8°C -0.7°C 78% 0 km/h 1.8 km/h 1017 hPa 0 mm/hr 0 mm
01:54 2.8°C -0.7°C 78% 0 km/h 0 km/h 1017 hPa 0 mm/hr 0 mm
01:49 2.9°C -0.6°C 78% 0 km/h 0 km/h 1017 hPa 0 mm/hr 0 mm
01:44 3°C -0.6°C 77% 0 km/h 0 km/h 1017 hPa 0 mm/hr 0 mm
01:39 3.1°C -0.5°C 77% 0 km/h 0 km/h 1017 hPa 0 mm/hr 0 mm
01:34 3.2°C -0.4°C 77% 0 km/h 0 km/h 1017 hPa 0 mm/hr 0 mm
01:29 3.3°C -0.4°C 77% 0 km/h 0 km/h 1017 hPa 0 mm/hr 0 mm
01:24 3.4°C -0.2°C 77% 0 km/h 0 km/h 1017 hPa 0 mm/hr 0 mm
01:19 3.4°C -0.2°C 77% 0 km/h 0 km/h 1017 hPa 0 mm/hr 0 mm
01:14 3.5°C -0.1°C 77% 0 km/h 0 km/h 1017 hPa 0 mm/hr 0 mm
01:09 3.6°C 0°C 77% 0 km/h 0 km/h 1017 hPa 0 mm/hr 0 mm
01:04 3.7°C 0.1°C 77% 0 km/h 0 km/h 1017 hPa 0 mm/hr 0 mm
00:59 3.7°C 0.1°C 77% 0 km/h 0 km/h 1017 hPa 0 mm/hr 0 mm
00:54 3.8°C 0.1°C 77% 0 km/h 0 km/h 1017 hPa 0 mm/hr 0 mm
00:49 3.8°C 0.1°C 77% 0 km/h 0 km/h 1017 hPa 0 mm/hr 0 mm
00:44 3.8°C 0.1°C 77% 0 km/h 0 km/h 1017 hPa 0 mm/hr 0 mm
00:39 3.8°C 0°C 76% 0 km/h 0 km/h 1017 hPa 0 mm/hr 0 mm
00:34 3.7°C -0.1°C 76% 0 km/h 0 km/h 1017 hPa 0 mm/hr 0 mm
00:29 3.6°C -0.2°C 76% 0 km/h 0 km/h 1017 hPa 0 mm/hr 0 mm
00:24 3.7°C -0.1°C 76% 0 km/h 0 km/h 1017 hPa 0 mm/hr 0 mm
00:19 3.6°C -0.2°C 76% 0 km/h 0 km/h 1017 hPa 0 mm/hr 0 mm
00:14 3.6°C -0.4°C 75% 0 km/h 0 km/h 1017 hPa 0 mm/hr 0 mm
00:09 3.6°C -0.4°C 75% 0 km/h 0 km/h 1017 hPa 0 mm/hr 0 mm
00:04 3.6°C -0.4°C 75% 0 km/h 0 km/h 1017 hPa 0 mm/hr 0 mm